Time;durP1;ratioP1;P1;durP2;ratioP2;P2;SDS_P1;SDS_P2;PMS_P1;PMS_P2;Temp;Humidity;BMP_temperature;BMP_pressure;BME280_temperature;BME280_humidity;BME280_pressure;Samples;Min_cycle;Max_cycle;Signal;HPM_P1;HPM_P2
2021/05/24 00:01:16;;;;;;;2.45;0.90;;;13.40;99.90;;;;;;4109944;28;20468;-81
2021/05/24 00:03:17;;;;;;;5.82;1.38;;;13.40;99.90;;;;;;4126164;28;20038;-81
2021/05/24 00:05:21;;;;;;;3.40;1.40;;;13.30;99.90;;;;;;4110187;28;20075;-81
2021/05/24 00:07:22;;;;;;;2.95;1.30;;;13.30;99.90;;;;;;4125784;28;20129;-81
2021/05/24 00:09:22;;;;;;;3.17;1.33;;;13.20;99.90;;;;;;4126333;28;20033;-81
2021/05/24 00:11:23;;;;;;;2.33;1.05;;;13.20;99.90;;;;;;4109694;28;20035;-81
2021/05/24 00:13:24;;;;;;;2.95;1.15;;;13.20;99.90;;;;;;4126245;28;20084;-81
2021/05/24 00:15:29;;;;;;;2.35;1.02;;;13.20;99.90;;;;;;4126121;28;20137;-82
2021/05/24 00:17:29;;;;;;;2.88;1.13;;;13.20;99.90;;;;;;4126469;28;20438;-81
2021/05/24 00:19:30;;;;;;;4.57;1.38;;;13.10;99.90;;;;;;4126634;28;20034;-81
2021/05/24 00:21:31;;;;;;;3.45;1.30;;;13.10;99.90;;;;;;4110214;28;20038;-82
2021/05/24 00:23:31;;;;;;;2.50;1.10;;;13.10;99.90;;;;;;4125769;28;20042;-81
2021/05/24 00:25:32;;;;;;;3.40;1.35;;;13.10;99.90;;;;;;4109765;28;20130;-81
2021/05/24 00:27:34;;;;;;;2.67;0.88;;;13.10;99.90;;;;;;4142294;28;20061;-81
2021/05/24 00:29:34;;;;;;;2.85;1.17;;;13.10;99.90;;;;;;4109407;28;20042;-81
2021/05/24 00:31:35;;;;;;;3.08;0.90;;;13.10;99.90;;;;;;4125662;28;20058;-81
2021/05/24 00:33:35;;;;;;;3.03;1.05;;;13.10;99.90;;;;;;4125795;28;20427;-81
2021/05/24 00:35:37;;;;;;;1.48;0.88;;;13.10;99.90;;;;;;4109942;28;20507;-81
2021/05/24 00:37:38;;;;;;;3.78;1.50;;;13.10;99.90;;;;;;4126286;28;20161;-81
2021/05/24 00:39:39;;;;;;;5.15;1.50;;;13.10;99.90;;;;;;4109945;28;20110;-82
2021/05/24 00:41:41;;;;;;;1.95;1.00;;;13.00;99.90;;;;;;4125608;28;20446;-82
2021/05/24 00:43:42;;;;;;;3.95;1.27;;;13.00;99.90;;;;;;4126447;28;20037;-81
2021/05/24 00:45:42;;;;;;;2.55;1.20;;;13.00;99.90;;;;;;4110023;28;20042;-81
2021/05/24 00:47:43;;;;;;;3.53;1.23;;;13.00;99.90;;;;;;4126005;28;20394;-81
2021/05/24 00:49:44;;;;;;;2.67;1.05;;;13.00;99.90;;;;;;4125283;28;20399;-81
2021/05/24 00:51:45;;;;;;;2.97;1.20;;;12.90;99.90;;;;;;4125463;28;20030;-81
2021/05/24 00:53:45;;;;;;;6.13;1.38;;;12.90;99.90;;;;;;4125718;28;20045;-82
2021/05/24 00:55:46;;;;;;;3.83;1.10;;;12.90;99.90;;;;;;4127503;28;20073;-82
2021/05/24 00:57:48;;;;;;;3.83;1.20;;;12.90;99.90;;;;;;4112717;28;20034;-81
2021/05/24 00:59:49;;;;;;;6.25;1.63;;;12.90;99.90;;;;;;4128968;28;20514;-82
2021/05/24 01:01:50;;;;;;;5.35;1.38;;;12.90;99.90;;;;;;4113066;28;20042;-82
2021/05/24 01:03:52;;;;;;;2.17;1.30;;;12.90;99.90;;;;;;4128860;28;20034;-82
2021/05/24 01:05:53;;;;;;;3.37;1.33;;;12.90;99.90;;;;;;4113566;28;20046;-82
2021/05/24 01:07:53;;;;;;;3.80;0.98;;;12.90;99.90;;;;;;4130410;28;20266;-82
2021/05/24 01:09:54;;;;;;;7.57;1.85;;;12.80;99.90;;;;;;4112194;28;20031;-81
2021/05/24 01:11:55;;;;;;;1.95;1.10;;;12.90;99.90;;;;;;4113391;28;20569;-82
2021/05/24 01:13:56;;;;;;;2.65;1.30;;;12.80;99.90;;;;;;4112282;28;20022;-82
2021/05/24 01:15:57;;;;;;;1.50;0.90;;;12.80;99.90;;;;;;4145465;28;20088;-81
2021/05/24 01:17:59;;;;;;;4.38;1.58;;;12.80;99.90;;;;;;4129058;28;20037;-81
2021/05/24 01:19:59;;;;;;;2.90;1.08;;;12.80;99.90;;;;;;4112329;28;20422;-81
2021/05/24 01:22:00;;;;;;;3.38;0.98;;;12.80;99.90;;;;;;4128758;28;20030;-82
2021/05/24 01:24:01;;;;;;;2.95;1.00;;;12.80;99.90;;;;;;4128334;28;20072;-82
2021/05/24 01:26:01;;;;;;;2.95;1.20;;;12.90;99.90;;;;;;4129141;28;20036;-81
2021/05/24 01:28:04;;;;;;;2.75;1.20;;;12.90;99.90;;;;;;4130319;28;20030;-81
2021/05/24 01:30:05;;;;;;;2.50;1.17;;;12.90;99.90;;;;;;4112671;28;20034;-81
2021/05/24 01:32:07;;;;;;;3.17;1.00;;;12.90;99.90;;;;;;4127707;28;20045;-81
2021/05/24 01:34:07;;;;;;;2.47;1.10;;;13.00;99.90;;;;;;4112478;28;20043;-81
2021/05/24 01:36:10;;;;;;;2.47;1.20;;;12.90;99.90;;;;;;4128533;28;20132;-81
2021/05/24 01:38:12;;;;;;;3.20;1.17;;;13.00;99.90;;;;;;4128417;28;20030;-81
2021/05/24 01:40:14;;;;;;;4.97;1.17;;;12.90;99.90;;;;;;4111739;28;20039;-82
2021/05/24 01:42:15;;;;;;;2.35;0.93;;;12.90;99.90;;;;;;4104222;28;20278;-82
2021/05/24 01:44:50;;;;;;;2.38;0.98;;;12.90;99.90;;;;;;4111825;28;20110;-82
2021/05/24 01:46:51;;;;;;;2.30;1.10;;;12.90;99.90;;;;;;4063000;29;20036;-81
2021/05/24 01:48:52;;;;;;;2.55;1.10;;;12.90;99.90;;;;;;4097789;28;20104;-81
2021/05/24 01:50:53;;;;;;;2.55;0.93;;;12.90;99.90;;;;;;4128461;28;20112;-81
2021/05/24 01:52:54;;;;;;;3.30;1.00;;;12.80;99.90;;;;;;4128608;28;20038;-82
2021/05/24 01:54:54;;;;;;;2.67;1.02;;;12.90;99.90;;;;;;4127951;28;20038;-82
2021/05/24 01:56:55;;;;;;;3.28;1.10;;;12.90;99.90;;;;;;4108135;28;20039;-81
2021/05/24 01:58:55;;;;;;;1.63;0.80;;;12.80;99.90;;;;;;4112107;28;20034;-82
2021/05/24 02:01:05;;;;;;;3.80;1.10;;;12.80;99.90;;;;;;4112225;28;20415;-82
2021/05/24 02:03:07;;;;;;;2.50;1.05;;;12.80;99.90;;;;;;4126004;28;20499;-82
2021/05/24 02:05:10;;;;;;;3.00;1.00;;;12.90;99.90;;;;;;4111928;28;20525;-82
2021/05/24 02:07:10;;;;;;;4.25;0.88;;;12.90;99.90;;;;;;4144042;28;20041;-81
2021/05/24 02:09:11;;;;;;;2.17;1.05;;;12.80;99.90;;;;;;4126755;28;20446;-81
2021/05/24 02:11:14;;;;;;;3.20;0.93;;;12.90;99.90;;;;;;4112206;28;20034;-81
2021/05/24 02:13:14;;;;;;;4.25;1.10;;;12.90;99.90;;;;;;4127829;28;20038;-81
2021/05/24 02:15:18;;;;;;;2.97;1.20;;;12.80;99.90;;;;;;4128343;28;20046;-81
2021/05/24 02:17:19;;;;;;;5.07;1.48;;;12.80;99.90;;;;;;4111559;28;20085;-81
2021/05/24 02:19:21;;;;;;;3.03;1.00;;;12.80;99.90;;;;;;4127863;28;20031;-82
2021/05/24 02:21:21;;;;;;;3.45;1.00;;;12.80;99.90;;;;;;4111989;28;20522;-82
2021/05/24 02:23:22;;;;;;;2.80;1.10;;;12.80;99.90;;;;;;4127775;28;20034;-82
2021/05/24 02:25:23;;;;;;;4.65;1.55;;;12.80;99.90;;;;;;4127502;28;20038;-82
2021/05/24 02:27:24;;;;;;;3.60;1.17;;;12.80;99.90;;;;;;4112196;28;20039;-82
2021/05/24 02:29:25;;;;;;;2.42;0.90;;;12.80;99.90;;;;;;4127636;28;20030;-81
2021/05/24 02:31:26;;;;;;;1.98;0.88;;;12.80;99.90;;;;;;4111546;28;20427;-81
2021/05/24 02:33:26;;;;;;;2.20;1.00;;;12.90;99.90;;;;;;4111929;28;20031;-81
2021/05/24 02:35:27;;;;;;;3.70;0.95;;;12.80;99.90;;;;;;4127696;28;20035;-81
2021/05/24 02:37:28;;;;;;;1.90;0.80;;;12.80;99.90;;;;;;4111824;28;20038;-81
2021/05/24 02:39:29;;;;;;;3.45;0.98;;;12.80;99.90;;;;;;4129516;28;20406;-82
2021/05/24 02:41:29;;;;;;;1.70;0.80;;;12.90;99.90;;;;;;4111006;28;20049;-81
2021/05/24 02:43:30;;;;;;;4.22;1.13;;;12.90;99.90;;;;;;4127553;28;20038;-82
2021/05/24 02:45:31;;;;;;;7.10;1.30;;;12.80;99.90;;;;;;4126921;28;20427;-81
2021/05/24 02:47:33;;;;;;;1.77;1.00;;;12.80;99.90;;;;;;4127448;28;20073;-81
2021/05/24 02:49:34;;;;;;;1.05;0.60;;;12.80;99.90;;;;;;4111151;28;20038;-81
2021/05/24 02:51:35;;;;;;;2.40;1.00;;;12.80;99.90;;;;;;4127146;28;20121;-81
2021/05/24 02:53:36;;;;;;;3.28;0.93;;;12.80;99.90;;;;;;4111638;28;20035;-82
2021/05/24 02:55:37;;;;;;;2.42;1.08;;;12.80;99.90;;;;;;4123426;28;20419;-82
2021/05/24 02:57:38;;;;;;;1.48;0.70;;;12.80;99.90;;;;;;4127232;28;20123;-82
2021/05/24 02:59:39;;;;;;;2.20;0.80;;;12.80;99.90;;;;;;4111168;28;20085;-81
2021/05/24 03:01:40;;;;;;;4.82;0.77;;;12.80;99.90;;;;;;4127142;28;20449;-81
2021/05/24 03:03:41;;;;;;;8.38;1.00;;;12.80;99.90;;;;;;4110460;28;20496;-81
2021/05/24 03:05:42;;;;;;;3.22;1.00;;;12.80;99.90;;;;;;4125933;28;20113;-82
2021/05/24 03:07:43;;;;;;;4.90;0.80;;;12.90;99.90;;;;;;4127435;28;20026;-81
2021/05/24 03:09:43;;;;;;;3.90;0.75;;;12.90;99.90;;;;;;4128034;28;20061;-81
2021/05/24 03:11:44;;;;;;;1.65;0.73;;;12.90;99.90;;;;;;4126778;28;20030;-81
2021/05/24 03:13:45;;;;;;;1.98;0.70;;;12.90;99.90;;;;;;4127152;28;20042;-81
2021/05/24 03:15:45;;;;;;;1.35;0.70;;;12.90;99.90;;;;;;4126479;28;20030;-81
2021/05/24 03:17:46;;;;;;;2.90;1.00;;;12.90;99.90;;;;;;4129071;28;20113;-81
2021/05/24 03:19:47;;;;;;;2.30;0.90;;;12.90;99.90;;;;;;4128992;28;20471;-81
2021/05/24 03:21:47;;;;;;;3.92;1.00;;;13.00;99.90;;;;;;4126308;28;20380;-81
2021/05/24 03:23:48;;;;;;;2.65;0.77;;;12.90;99.90;;;;;;4127140;28;20558;-81
2021/05/24 03:25:49;;;;;;;1.30;0.70;;;12.90;99.90;;;;;;4110345;28;20046;-81
2021/05/24 03:27:49;;;;;;;1.17;0.60;;;12.90;99.90;;;;;;4143221;28;20187;-81
2021/05/24 03:29:50;;;;;;;2.38;0.90;;;12.90;99.90;;;;;;4126799;28;20034;-81
2021/05/24 03:31:50;;;;;;;1.40;0.65;;;12.90;99.90;;;;;;4126180;28;20144;-82
2021/05/24 03:33:51;;;;;;;1.08;0.63;;;13.00;99.90;;;;;;4110965;28;20395;-82
2021/05/24 03:35:52;;;;;;;1.98;0.80;;;12.90;99.90;;;;;;4128168;28;20031;-82
2021/05/24 03:37:52;;;;;;;2.78;0.80;;;13.00;99.90;;;;;;4110688;28;20114;-82
2021/05/24 03:39:53;;;;;;;2.67;0.70;;;13.00;99.90;;;;;;4110896;28;20495;-82
2021/05/24 03:41:53;;;;;;;2.88;1.08;;;13.00;99.90;;;;;;4125308;28;20041;-82
2021/05/24 03:43:54;;;;;;;2.35;0.82;;;13.00;99.90;;;;;;4126425;28;20045;-81
2021/05/24 03:45:55;;;;;;;4.90;0.98;;;13.00;99.90;;;;;;4126824;28;20542;-82
2021/05/24 03:47:55;;;;;;;1.83;0.73;;;13.00;99.90;;;;;;4111122;28;20054;-81
2021/05/24 03:49:56;;;;;;;3.05;0.77;;;13.00;99.90;;;;;;4126153;28;20027;-82
2021/05/24 03:51:56;;;;;;;3.78;0.70;;;13.00;99.90;;;;;;4126296;28;20503;-81
2021/05/24 03:53:58;;;;;;;2.47;0.93;;;13.00;99.90;;;;;;4127482;28;20041;-82
2021/05/24 03:55:59;;;;;;;8.68;0.82;;;13.00;99.90;;;;;;4110589;28;20026;-82
2021/05/24 03:57:59;;;;;;;3.63;1.10;;;13.00;99.90;;;;;;4126742;28;20031;-82
2021/05/24 04:00:00;;;;;;;1.67;0.85;;;13.00;99.90;;;;;;4127066;28;20112;-81
2021/05/24 04:02:01;;;;;;;2.25;0.95;;;13.00;99.90;;;;;;4109681;28;20479;-81
2021/05/24 04:04:04;;;;;;;3.38;0.85;;;13.10;99.90;;;;;;4127050;28;20026;-81
2021/05/24 04:06:06;;;;;;;3.72;1.05;;;13.00;99.90;;;;;;4110194;28;20113;-81
2021/05/24 04:08:08;;;;;;;3.30;0.77;;;13.00;99.90;;;;;;4110783;28;20439;-81
2021/05/24 04:10:10;;;;;;;2.10;0.80;;;13.00;99.90;;;;;;4127146;28;20042;-82
2021/05/24 04:12:10;;;;;;;0.60;0.60;;;13.00;99.90;;;;;;4126098;28;20253;-81
2021/05/24 04:14:11;;;;;;;1.50;0.70;;;13.10;99.90;;;;;;4127898;28;20037;-82
2021/05/24 04:16:12;;;;;;;2.85;0.93;;;13.10;99.90;;;;;;4110250;28;20027;-82
2021/05/24 04:18:16;;;;;;;2.25;0.93;;;13.10;99.90;;;;;;4126415;28;20035;-82
2021/05/24 04:20:17;;;;;;;1.65;0.82;;;13.10;99.90;;;;;;4102490;28;20030;-82
2021/05/24 04:22:18;;;;;;;3.50;0.80;;;13.10;99.90;;;;;;4142010;28;20430;-82
2021/05/24 04:24:18;;;;;;;2.40;1.05;;;13.10;99.90;;;;;;4110578;28;20061;-82
2021/05/24 04:26:19;;;;;;;2.97;1.00;;;13.20;99.90;;;;;;4125527;28;20058;-82
2021/05/24 04:28:20;;;;;;;1.67;0.70;;;13.10;99.90;;;;;;4110288;28;20023;-82
2021/05/24 04:30:20;;;;;;;2.53;0.82;;;13.10;99.90;;;;;;4127827;28;20165;-82
2021/05/24 04:32:21;;;;;;;1.33;0.63;;;13.10;99.90;;;;;;4109452;28;20031;-82
2021/05/24 04:34:22;;;;;;;3.80;1.00;;;13.20;99.90;;;;;;4125858;28;20039;-81
2021/05/24 04:36:23;;;;;;;3.03;1.13;;;13.10;99.90;;;;;;4110231;28;20527;-81
2021/05/24 04:38:24;;;;;;;3.08;0.70;;;13.20;99.90;;;;;;4127667;28;20088;-82
2021/05/24 04:40:25;;;;;;;3.38;0.93;;;13.20;99.90;;;;;;4110002;28;20043;-81
2021/05/24 04:42:25;;;;;;;2.22;1.15;;;13.20;99.90;;;;;;4109874;28;20141;-81
2021/05/24 04:44:26;;;;;;;2.08;0.90;;;13.20;99.90;;;;;;4126080;28;20054;-82
2021/05/24 04:46:27;;;;;;;3.38;0.88;;;13.10;99.90;;;;;;4110619;28;20037;-81
2021/05/24 04:48:27;;;;;;;4.00;1.10;;;13.10;99.90;;;;;;4109660;28;20114;-82
2021/05/24 04:50:28;;;;;;;2.55;0.82;;;13.10;99.90;;;;;;4109678;28;20038;-82
2021/05/24 04:52:28;;;;;;;3.13;0.93;;;13.10;99.90;;;;;;4125875;28;20375;-82
2021/05/24 04:54:29;;;;;;;4.15;0.98;;;13.10;99.90;;;;;;4126433;28;20522;-82
2021/05/24 04:56:30;;;;;;;3.15;0.85;;;13.10;99.90;;;;;;4110430;28;20423;-82
2021/05/24 04:58:30;;;;;;;4.32;1.40;;;13.10;99.90;;;;;;4109887;28;20050;-82
2021/05/24 05:00:31;;;;;;;3.00;0.95;;;13.10;99.90;;;;;;4110292;28;20042;-81
2021/05/24 05:02:32;;;;;;;6.50;1.40;;;13.10;99.90;;;;;;4128196;28;20034;-81
2021/05/24 05:04:32;;;;;;;3.00;0.93;;;13.20;99.90;;;;;;4109868;28;20566;-81
2021/05/24 05:06:33;;;;;;;2.58;0.90;;;13.20;99.90;;;;;;4126385;28;20254;-82
2021/05/24 05:08:34;;;;;;;2.42;0.73;;;13.20;99.90;;;;;;4125485;28;20035;-82
2021/05/24 05:10:35;;;;;;;3.10;1.08;;;13.30;99.90;;;;;;4128031;28;20066;-82
2021/05/24 05:12:37;;;;;;;2.97;0.98;;;13.30;99.90;;;;;;4110222;28;20029;-81
2021/05/24 05:14:37;;;;;;;2.58;0.75;;;13.30;99.90;;;;;;4125187;28;20453;-82
2021/05/24 05:16:38;;;;;;;5.82;1.00;;;13.30;99.90;;;;;;4109971;28;20027;-81
2021/05/24 05:18:38;;;;;;;4.35;1.35;;;13.30;99.90;;;;;;4141673;28;20041;-81
2021/05/24 05:20:39;;;;;;;2.95;0.77;;;13.30;99.90;;;;;;4109251;28;20039;-81
2021/05/24 05:22:40;;;;;;;4.07;1.05;;;13.30;99.90;;;;;;4120880;28;20668;-81
2021/05/24 05:24:41;;;;;;;3.83;1.10;;;13.40;99.90;;;;;;4106486;28;20038;-82
2021/05/24 05:26:42;;;;;;;2.90;0.98;;;13.40;99.90;;;;;;4138375;28;20338;-82
2021/05/24 05:28:43;;;;;;;4.85;0.73;;;13.40;99.90;;;;;;4106674;28;20039;-81
2021/05/24 05:30:43;;;;;;;3.38;1.02;;;13.40;99.90;;;;;;4141261;28;20130;-81
2021/05/24 05:32:44;;;;;;;1.77;0.88;;;13.50;99.90;;;;;;4121738;28;20088;-81
2021/05/24 05:34:44;;;;;;;3.22;0.85;;;13.50;99.90;;;;;;4124536;28;20034;-82
2021/05/24 05:36:45;;;;;;;3.22;0.93;;;13.60;99.90;;;;;;4101593;28;20071;-82
2021/05/24 05:38:46;;;;;;;2.15;1.00;;;13.60;99.90;;;;;;4118984;28;20495;-81
2021/05/24 05:40:49;;;;;;;2.42;1.10;;;13.70;99.90;;;;;;4109902;28;20106;-82
2021/05/24 05:42:50;;;;;;;2.80;1.00;;;13.70;99.90;;;;;;4123306;28;20039;-82
2021/05/24 05:44:50;;;;;;;2.42;0.95;;;13.70;99.90;;;;;;4128377;28;20046;-82
2021/05/24 05:46:51;;;;;;;1.70;1.13;;;13.70;99.90;;;;;;4110241;28;20027;-80
2021/05/24 05:48:52;;;;;;;2.08;1.02;;;13.70;99.90;;;;;;4110273;28;20031;-79
2021/05/24 05:50:52;;;;;;;2.58;1.15;;;13.80;99.90;;;;;;4123735;28;21530;-79
2021/05/24 05:52:53;;;;;;;3.00;1.08;;;13.80;99.90;;;;;;4123100;28;20045;-79
2021/05/24 05:54:53;;;;;;;4.40;1.15;;;13.80;99.90;;;;;;4125009;28;20125;-80
2021/05/24 05:57:00;;;;;;;2.20;1.02;;;13.80;99.90;;;;;;4112441;28;20061;-79
2021/05/24 05:59:00;;;;;;;2.78;1.10;;;13.90;99.90;;;;;;4128012;28;20041;-79
2021/05/24 06:01:04;;;;;;;4.80;1.10;;;13.90;99.90;;;;;;4129757;28;20034;-79
2021/05/24 06:03:05;;;;;;;5.95;1.45;;;14.00;99.90;;;;;;4117149;28;20037;-80
2021/05/24 06:05:06;;;;;;;4.40;1.20;;;14.00;99.90;;;;;;4124244;28;20030;-80
2021/05/24 06:07:06;;;;;;;1.85;1.00;;;14.00;99.90;;;;;;4122896;28;20053;-79
2021/05/24 06:09:07;;;;;;;4.40;1.20;;;14.10;99.90;;;;;;4124113;28;20100;-79
2021/05/24 06:11:08;;;;;;;4.63;1.30;;;14.10;99.90;;;;;;4130714;28;20109;-79
2021/05/24 06:13:13;;;;;;;3.00;0.93;;;14.10;99.90;;;;;;4124500;28;20035;-79
2021/05/24 06:15:17;;;;;;;2.17;0.63;;;14.10;99.90;;;;;;4129594;28;20085;-79
2021/05/24 06:17:17;;;;;;;3.22;1.20;;;14.20;99.90;;;;;;4122942;28;20127;-79
2021/05/24 06:19:18;;;;;;;1.77;0.95;;;14.20;99.90;;;;;;4121604;28;20030;-79
2021/05/24 06:21:21;;;;;;;2.63;0.82;;;14.30;99.90;;;;;;4128216;28;20034;-79
2021/05/24 06:23:21;;;;;;;;;;;14.40;99.90;;;;;;4112190;28;20095;-79
2021/05/24 06:25:22;;;;;;;5.35;1.02;;;14.60;99.90;;;;;;4125212;28;19997;-79
2021/05/24 06:27:28;;;;;;;2.55;0.85;;;14.80;99.90;;;;;;4120884;28;20043;-80
2021/05/24 06:29:32;;;;;;;2.92;0.93;;;15.10;99.90;;;;;;4128823;28;20038;-79
2021/05/24 06:31:33;;;;;;;2.50;1.08;;;15.30;99.90;;;;;;4122599;28;20034;-79
2021/05/24 06:33:35;;;;;;;2.37;0.90;;;15.40;99.90;;;;;;4122573;28;20078;-79
2021/05/24 06:35:36;;;;;;;3.38;1.33;;;15.60;99.90;;;;;;4108132;28;20189;-79
2021/05/24 06:37:37;;;;;;;4.32;1.40;;;15.70;99.90;;;;;;4123137;28;20049;-79
2021/05/24 06:39:39;;;;;;;3.63;1.40;;;15.80;99.90;;;;;;4122767;28;20034;-79
2021/05/24 06:41:39;;;;;;;3.38;1.50;;;15.80;99.90;;;;;;4100197;28;20038;-79
2021/05/24 06:43:43;;;;;;;3.00;1.30;;;15.80;99.90;;;;;;4118777;28;20426;-79
2021/05/24 06:45:44;;;;;;;1.90;1.15;;;15.80;99.90;;;;;;4130814;28;20089;-79
2021/05/24 06:47:45;;;;;;;4.50;1.50;;;15.80;99.90;;;;;;4128982;28;20038;-80
2021/05/24 06:49:45;;;;;;;3.67;1.10;;;15.70;99.90;;;;;;4109207;28;20180;-79
2021/05/24 06:51:47;;;;;;;3.65;0.98;;;15.80;99.90;;;;;;4125252;28;20092;-80
2021/05/24 06:53:52;;;;;;;2.92;1.02;;;15.80;99.90;;;;;;4124572;28;20038;-79
2021/05/24 06:55:53;;;;;;;2.75;0.82;;;15.90;99.90;;;;;;4109157;28;20042;-79
2021/05/24 06:57:57;;;;;;;3.13;1.00;;;15.90;99.90;;;;;;4129110;28;20494;-79
2021/05/24 06:59:57;;;;;;;2.30;0.93;;;16.00;99.90;;;;;;4109497;28;20046;-79
2021/05/24 07:01:59;;;;;;;2.38;1.20;;;16.10;99.90;;;;;;4123599;28;20035;-79
2021/05/24 07:04:00;;;;;;;2.97;0.85;;;16.10;99.90;;;;;;4122388;28;20043;-79
2021/05/24 07:06:00;;;;;;;3.38;1.15;;;16.10;99.90;;;;;;4110281;28;20023;-79
2021/05/24 07:08:01;;;;;;;3.20;1.05;;;16.10;99.90;;;;;;4100837;28;20031;-79
2021/05/24 07:10:03;;;;;;;3.78;0.73;;;16.20;99.90;;;;;;4121575;28;20109;-79
2021/05/24 07:12:05;;;;;;;2.63;1.10;;;16.20;99.90;;;;;;4127767;28;20111;-79
2021/05/24 07:14:06;;;;;;;3.60;0.90;;;16.20;99.90;;;;;;4125196;28;20031;-79
2021/05/24 07:16:07;;;;;;;3.55;1.30;;;16.30;99.90;;;;;;4119901;28;20113;-79
2021/05/24 07:18:08;;;;;;;2.03;0.90;;;16.30;99.90;;;;;;4108914;28;20039;-79
2021/05/24 07:20:09;;;;;;;3.25;1.10;;;16.30;99.90;;;;;;4120375;28;20142;-79
2021/05/24 07:22:10;;;;;;;3.00;1.25;;;16.30;99.90;;;;;;4119918;28;20101;-78
2021/05/24 07:24:10;;;;;;;2.90;0.80;;;16.30;99.90;;;;;;4123145;28;20356;-80
2021/05/24 07:26:11;;;;;;;3.38;0.80;;;16.30;99.90;;;;;;4121517;28;20058;-79
2021/05/24 07:28:12;;;;;;;2.35;1.10;;;16.30;99.90;;;;;;4119512;28;20099;-80
2021/05/24 07:30:13;;;;;;;3.00;0.70;;;16.30;99.90;;;;;;4124395;28;20038;-79
2021/05/24 07:32:14;;;;;;;4.22;1.10;;;16.40;99.90;;;;;;4121711;28;20061;-79
2021/05/24 07:34:17;;;;;;;3.10;1.00;;;16.40;99.90;;;;;;4102779;28;20031;-78
2021/05/24 07:36:18;;;;;;;3.60;1.10;;;16.40;99.90;;;;;;4124934;28;20062;-79
2021/05/24 07:38:20;;;;;;;1.80;0.70;;;16.40;99.90;;;;;;4129129;28;20114;-79
2021/05/24 07:40:20;;;;;;;4.33;1.07;;;16.40;99.90;;;;;;4109910;28;20563;-79
2021/05/24 07:42:21;;;;;;;2.63;0.95;;;16.40;99.90;;;;;;4126079;28;20038;-79
2021/05/24 07:44:21;;;;;;;4.40;1.00;;;16.40;99.90;;;;;;4127758;28;20145;-79
2021/05/24 07:46:22;;;;;;;3.22;0.98;;;16.40;99.90;;;;;;4125989;28;20027;-79
2021/05/24 07:48:23;;;;;;;3.15;0.90;;;16.50;99.90;;;;;;4121950;28;20035;-79
2021/05/24 07:50:25;;;;;;;1.77;0.80;;;16.50;99.90;;;;;;4127692;28;20035;-79
2021/05/24 07:52:25;;;;;;;4.30;1.23;;;16.40;99.90;;;;;;4125150;28;20037;-79
2021/05/24 07:54:26;;;;;;;5.75;1.13;;;16.40;99.90;;;;;;4124015;28;20300;-79
2021/05/24 07:56:28;;;;;;;4.30;1.13;;;16.40;99.90;;;;;;4125447;28;20121;-79
2021/05/24 07:58:30;;;;;;;1.88;0.85;;;16.50;99.90;;;;;;4119101;28;20065;-79
2021/05/24 08:00:31;;;;;;;2.27;0.83;;;16.50;99.90;;;;;;4114376;28;20027;-79
2021/05/24 08:02:31;;;;;;;6.13;1.20;;;16.50;99.90;;;;;;4124844;28;20038;-79
2021/05/24 08:04:33;;;;;;;3.63;1.00;;;16.50;99.90;;;;;;4105530;28;20170;-79
2021/05/24 08:06:36;;;;;;;3.25;1.13;;;16.50;99.90;;;;;;4122235;28;20031;-79
2021/05/24 08:08:39;;;;;;;4.82;1.27;;;16.50;99.90;;;;;;4124875;28;20117;-79
2021/05/24 08:10:45;;;;;;;3.60;1.08;;;16.50;99.90;;;;;;4125540;28;20731;-79
2021/05/24 08:12:47;;;;;;;2.00;0.70;;;16.50;99.90;;;;;;4119450;28;20493;-79
2021/05/24 08:14:47;;;;;;;2.80;1.15;;;16.50;99.90;;;;;;4119689;28;20109;-79
2021/05/24 08:16:48;;;;;;;2.33;0.80;;;16.50;99.90;;;;;;4125348;28;20027;-79
2021/05/24 08:18:50;;;;;;;3.33;1.13;;;16.50;99.90;;;;;;4121956;28;20031;-79
2021/05/24 08:20:51;;;;;;;2.50;1.08;;;16.50;99.90;;;;;;4120240;28;20030;-79
2021/05/24 08:22:51;;;;;;;2.75;1.00;;;16.50;99.90;;;;;;4117305;28;20600;-79
2021/05/24 08:24:52;;;;;;;4.03;1.20;;;16.50;99.90;;;;;;4126113;28;20038;-79
2021/05/24 08:26:53;;;;;;;2.75;1.23;;;16.60;99.90;;;;;;4129287;28;20050;-79
2021/05/24 08:28:54;;;;;;;2.60;0.90;;;16.60;99.90;;;;;;4126586;28;20046;-79
2021/05/24 08:30:55;;;;;;;3.22;1.10;;;16.60;99.90;;;;;;4118918;28;20532;-79
2021/05/24 08:32:56;;;;;;;3.65;1.35;;;16.60;99.90;;;;;;4106822;28;20027;-79
2021/05/24 08:34:56;;;;;;;2.90;1.02;;;16.60;99.90;;;;;;4127752;28;20031;-79
2021/05/24 08:36:59;;;;;;;2.47;1.08;;;16.70;99.90;;;;;;4124611;28;20521;-79
2021/05/24 08:39:01;;;;;;;;;;;16.70;99.90;;;;;;4124821;28;20081;-79
2021/05/24 08:41:08;;;;;;;3.22;1.10;;;16.70;99.90;;;;;;4128571;28;19914;-79
2021/05/24 08:43:10;;;;;;;2.60;0.90;;;16.70;99.90;;;;;;4118956;28;20050;-79
2021/05/24 08:45:12;;;;;;;2.63;1.10;;;16.60;99.90;;;;;;4126580;28;20487;-79
2021/05/24 08:47:13;;;;;;;3.08;0.90;;;16.60;99.90;;;;;;4120879;28;20038;-79
2021/05/24 08:49:14;;;;;;;4.13;1.02;;;16.70;99.90;;;;;;4120990;28;20522;-79
2021/05/24 08:51:14;;;;;;;4.00;1.17;;;16.70;99.90;;;;;;4102965;28;20043;-79
2021/05/24 08:53:15;;;;;;;4.95;1.45;;;16.70;99.90;;;;;;4105417;28;20058;-79
2021/05/24 08:55:18;;;;;;;6.70;1.10;;;16.80;99.90;;;;;;4103112;28;20122;-79
2021/05/24 08:57:19;;;;;;;3.03;1.00;;;16.80;99.90;;;;;;4129011;28;20073;-79
2021/05/24 08:59:19;;;;;;;4.28;1.10;;;16.80;99.90;;;;;;4110183;28;20039;-79
2021/05/24 09:01:20;;;;;;;1.95;1.00;;;16.80;99.90;;;;;;4127625;28;20038;-79
2021/05/24 09:03:26;;;;;;;6.95;0.95;;;16.80;99.90;;;;;;4124049;28;20038;-79
2021/05/24 09:05:30;;;;;;;5.28;1.00;;;16.80;99.90;;;;;;4119886;28;20397;-79
2021/05/24 09:08:08;;;;;;;3.35;0.93;;;16.80;99.90;;;;;;4122994;28;20125;-79
2021/05/24 09:10:10;;;;;;;4.72;1.00;;;16.80;99.90;;;;;;4100056;28;20063;-79
2021/05/24 09:12:20;;;;;;;3.03;0.98;;;16.80;99.90;;;;;;4121953;28;20713;-79
2021/05/24 09:14:24;;;;;;;2.28;0.80;;;16.80;99.90;;;;;;4120343;28;20046;-79
2021/05/24 09:16:32;;;;;;;3.95;0.68;;;16.80;99.90;;;;;;4106770;28;20032;-79
2021/05/24 09:19:16;;;;;;;4.88;0.60;;;16.80;99.90;;;;;;4145068;28;20116;-79
2021/05/24 09:21:19;;;;;;;2.38;0.60;;;16.70;99.90;;;;;;4118228;28;20117;-79
2021/05/24 09:23:24;;;;;;;2.58;0.82;;;16.80;99.90;;;;;;4112169;28;20050;-79
2021/05/24 09:25:50;;;;;;;1.90;0.65;;;16.70;99.90;;;;;;4122764;28;20050;-79
2021/05/24 09:27:51;;;;;;;5.13;0.95;;;16.60;99.90;;;;;;4125580;28;20038;-79
2021/05/24 09:29:53;;;;;;;4.80;1.42;;;16.70;99.90;;;;;;4126490;28;20085;-79
2021/05/24 09:32:15;;;;;;;2.97;0.75;;;16.60;99.90;;;;;;4127915;28;20076;-79
2021/05/24 09:34:21;;;;;;;3.97;1.08;;;16.60;99.90;;;;;;4126050;28;20035;-79
2021/05/24 09:36:24;;;;;;;2.75;0.82;;;16.60;99.90;;;;;;4127661;28;20043;-80
2021/05/24 09:38:31;;;;;;;3.17;1.13;;;16.60;99.90;;;;;;4126127;28;20039;-79
2021/05/24 09:40:34;;;;;;;2.38;0.98;;;16.60;99.90;;;;;;4121651;28;20035;-79
2021/05/24 09:42:43;;;;;;;5.80;0.93;;;16.60;99.90;;;;;;4117222;28;20070;-78
2021/05/24 09:44:46;;;;;;;2.33;0.80;;;16.60;99.90;;;;;;4127460;28;20034;-79
2021/05/24 09:46:48;;;;;;;5.82;1.10;;;16.60;99.90;;;;;;4119373;28;20035;-79
2021/05/24 09:48:51;;;;;;;3.30;0.98;;;16.60;99.90;;;;;;4126926;28;20034;-79
2021/05/24 09:50:55;;;;;;;4.75;0.70;;;16.60;99.90;;;;;;4111235;28;20511;-79
2021/05/24 09:52:56;;;;;;;4.10;0.80;;;16.50;99.90;;;;;;4122861;28;20033;-79
2021/05/24 09:55:18;;;;;;;1.63;0.70;;;16.60;99.90;;;;;;4128749;28;20061;-78
2021/05/24 09:57:19;;;;;;;1.35;0.60;;;16.50;99.90;;;;;;4122691;28;20092;-79
2021/05/24 09:59:21;;;;;;;3.72;0.80;;;16.60;99.90;;;;;;4127358;28;20030;-79
2021/05/24 10:01:29;;;;;;;1.55;0.80;;;16.60;99.90;;;;;;4117142;28;20066;-79
2021/05/24 10:03:33;;;;;;;3.20;0.80;;;16.60;99.90;;;;;;4125407;28;20059;-79
2021/05/24 10:05:49;;;;;;;5.72;0.75;;;16.60;99.90;;;;;;4128939;28;20114;-79
2021/05/24 10:07:50;;;;;;;4.50;1.10;;;16.50;99.90;;;;;;4127677;28;20026;-79
2021/05/24 10:09:50;;;;;;;4.25;0.90;;;16.30;99.90;;;;;;4129713;28;20034;-79
2021/05/24 10:11:54;;;;;;;1.60;0.80;;;16.30;99.90;;;;;;4123452;28;20387;-79
2021/05/24 10:13:56;;;;;;;1.40;0.80;;;16.20;99.90;;;;;;4121275;28;20042;-79
2021/05/24 10:16:04;;;;;;;2.67;0.60;;;16.20;99.90;;;;;;4123579;28;20049;-79
2021/05/24 10:18:06;;;;;;;2.72;0.70;;;16.00;99.90;;;;;;4126356;28;20089;-79
2021/05/24 10:20:14;;;;;;;2.97;0.82;;;16.00;99.90;;;;;;4118113;28;20023;-79
2021/05/24 10:22:17;;;;;;;1.88;0.75;;;15.90;99.90;;;;;;4122147;28;20090;-79
2021/05/24 10:24:25;;;;;;;5.45;0.90;;;15.90;99.90;;;;;;4125359;28;20038;-79
2021/05/24 10:26:28;;;;;;;2.30;0.75;;;15.80;99.90;;;;;;4124035;28;20165;-79
2021/05/24 10:28:30;;;;;;;;;;;15.80;99.90;;;;;;4124140;28;20027;-79
2021/05/24 10:30:34;;;;;;;1.25;0.70;;;15.70;99.90;;;;;;4120744;28;19949;-79
2021/05/24 10:32:57;;;;;;;1.38;0.70;;;15.70;99.90;;;;;;4109750;28;20039;-79
2021/05/24 10:34:59;;;;;;;6.40;1.00;;;15.60;99.90;;;;;;4110223;28;20027;-79
2021/05/24 10:37:14;;;;;;;0.50;0.50;;;15.60;99.90;;;;;;4127468;28;20050;-79